Terminal Aerodrome Forecast
Issued by NWS

Home | Current Version | Previous Version | Text Only | Print | Product List | Glossary On
Versions: 1 2 3 4 5 6 7 8 9 10 11 12
000
FTUS43 KPAH 312320
TAFOWB
TAF
KOWB 312320Z 0100/0124 34006KT P6SM SCT040 BKN070
      TEMPO 0100/0103 5SM -SHRA BKN030
     FM010600 35005KT 5SM BR BKN020
     FM011400 02007KT P6SM SCT250
     FM011700 02009KT P6SM SCT030=

USA.gov is the U.S. government's official web portal to all federal, state and local government web resources and services.